createdAt,value
2019-05-15T00:01:05.464Z,99.90
2019-05-15T00:03:34.227Z,99.90
2019-05-15T00:06:02.941Z,99.90
2019-05-15T00:08:31.578Z,99.90
2019-05-15T00:11:00.266Z,99.90
2019-05-15T00:13:28.949Z,99.90
2019-05-15T00:15:59.013Z,99.90
2019-05-15T00:18:28.121Z,99.90
2019-05-15T00:20:59.410Z,99.90
2019-05-15T00:23:29.131Z,99.90
2019-05-15T00:25:58.415Z,99.90
2019-05-15T00:28:27.972Z,99.90
2019-05-15T00:30:58.237Z,99.90
2019-05-15T00:33:28.594Z,99.90
2019-05-15T00:35:58.952Z,99.90
2019-05-15T00:38:27.988Z,99.90
2019-05-15T00:40:58.438Z,99.90
2019-05-15T00:43:28.937Z,99.90
2019-05-15T00:45:58.593Z,99.90
2019-05-15T00:48:29.288Z,99.90
2019-05-15T00:50:58.975Z,99.90
2019-05-15T00:53:28.334Z,99.90
2019-05-15T00:55:58.067Z,99.90
2019-05-15T00:58:28.288Z,99.90
2019-05-15T01:00:59.059Z,99.90
2019-05-15T01:03:27.887Z,99.90
2019-05-15T01:05:58.607Z,99.90
2019-05-15T01:08:28.487Z,99.90
2019-05-15T01:10:58.200Z,99.90
2019-05-15T01:13:28.209Z,99.90
2019-05-15T01:15:58.266Z,99.90
2019-05-15T01:18:29.059Z,99.90
2019-05-15T01:20:58.649Z,99.90
2019-05-15T01:23:28.224Z,99.90
2019-05-15T01:25:58.846Z,99.90
2019-05-15T01:28:28.885Z,99.90
2019-05-15T01:30:59.183Z,99.90
2019-05-15T01:33:28.406Z,99.90
2019-05-15T01:35:59.046Z,99.90
2019-05-15T01:38:28.057Z,99.90
2019-05-15T01:40:59.005Z,99.90
2019-05-15T01:43:29.114Z,99.90
2019-05-15T01:45:58.867Z,99.90
2019-05-15T01:48:28.333Z,99.90
2019-05-15T01:50:58.540Z,99.90
2019-05-15T01:53:29.081Z,99.90
2019-05-15T01:55:58.897Z,99.90
2019-05-15T01:58:28.766Z,99.90
2019-05-15T02:00:58.923Z,99.90
2019-05-15T02:03:28.943Z,99.90
2019-05-15T02:05:58.645Z,99.90
2019-05-15T02:08:28.455Z,99.90
2019-05-15T02:10:58.801Z,99.90
2019-05-15T02:13:28.246Z,99.90
2019-05-15T02:15:58.892Z,99.90
2019-05-15T02:18:28.561Z,99.90
2019-05-15T02:20:58.681Z,99.90
2019-05-15T02:23:28.057Z,99.90
2019-05-15T02:25:58.754Z,99.90
2019-05-15T02:28:28.876Z,99.90
2019-05-15T02:30:58.749Z,99.90
2019-05-15T02:33:30.037Z,99.90
2019-05-15T02:35:59.469Z,99.90
2019-05-15T02:38:29.590Z,99.90
2019-05-15T02:40:59.277Z,99.90
2019-05-15T02:43:29.804Z,99.90
2019-05-15T02:46:00.492Z,99.90
2019-05-15T02:48:29.316Z,99.90
2019-05-15T02:50:58.834Z,99.90
2019-05-15T02:53:29.937Z,99.90
2019-05-15T02:56:00.109Z,99.90
2019-05-15T02:58:29.131Z,99.90
2019-05-15T03:00:59.252Z,99.90
2019-05-15T03:03:29.498Z,99.90
2019-05-15T03:06:00.059Z,99.90
2019-05-15T03:08:29.735Z,99.90
2019-05-15T03:10:59.371Z,99.90
2019-05-15T03:13:29.814Z,99.90
2019-05-15T03:15:59.908Z,99.90
2019-05-15T03:18:29.178Z,99.90
2019-05-15T03:21:00.290Z,99.90
2019-05-15T03:23:29.505Z,99.90
2019-05-15T03:26:03.680Z,99.90
2019-05-15T03:28:29.578Z,99.90
2019-05-15T03:33:35.656Z,99.90
2019-05-15T03:36:02.665Z,99.90
2019-05-15T03:38:30.214Z,99.90
2019-05-15T03:40:59.497Z,99.90
2019-05-15T03:43:29.296Z,99.90
2019-05-15T03:46:01.365Z,99.90
2019-05-15T03:48:28.989Z,99.90
2019-05-15T03:50:59.819Z,99.90
2019-05-15T03:53:29.902Z,99.90
2019-05-15T03:55:59.152Z,99.90
2019-05-15T03:58:28.823Z,99.90
2019-05-15T04:01:00.349Z,99.90
2019-05-15T04:03:30.074Z,99.90
2019-05-15T04:06:00.519Z,99.90
2019-05-15T04:08:29.935Z,99.90
2019-05-15T04:10:59.683Z,99.90
2019-05-15T04:13:29.977Z,99.90
2019-05-15T04:15:59.448Z,99.90
2019-05-15T04:18:29.018Z,99.90
2019-05-15T04:21:00.186Z,99.90
2019-05-15T04:23:30.156Z,99.90
2019-05-15T04:25:59.002Z,99.90
2019-05-15T04:28:29.702Z,99.90
2019-05-15T04:30:59.583Z,99.90
2019-05-15T04:33:29.565Z,99.90
2019-05-15T04:35:58.946Z,99.90
2019-05-15T04:38:29.177Z,99.90
2019-05-15T04:40:59.076Z,99.90
2019-05-15T04:43:29.412Z,99.90
2019-05-15T04:45:59.199Z,99.90
2019-05-15T04:48:29.049Z,99.90
2019-05-15T04:50:58.919Z,99.90
2019-05-15T04:53:29.705Z,99.90
2019-05-15T04:55:59.681Z,99.90
2019-05-15T04:58:29.614Z,99.90
2019-05-15T05:00:59.882Z,99.90
2019-05-15T05:03:29.478Z,99.90
2019-05-15T05:05:59.310Z,99.90
2019-05-15T05:08:29.090Z,99.90
2019-05-15T05:10:59.151Z,99.90
2019-05-15T05:13:28.652Z,99.90
2019-05-15T05:15:58.760Z,99.90
2019-05-15T05:18:29.706Z,99.90
2019-05-15T05:20:57.888Z,99.90
2019-05-15T05:23:28.327Z,99.90
2019-05-15T05:25:58.142Z,99.90
2019-05-15T05:28:28.951Z,99.90
2019-05-15T05:30:58.830Z,99.90
2019-05-15T05:33:28.727Z,99.90
2019-05-15T05:35:58.328Z,99.90
2019-05-15T05:38:28.138Z,99.90
2019-05-15T05:40:58.640Z,99.90
2019-05-15T05:43:29.787Z,99.90
2019-05-15T05:45:58.207Z,99.20
2019-05-15T05:48:29.085Z,99.40
2019-05-15T05:50:58.404Z,99.20
2019-05-15T05:55:58.084Z,98.20
2019-05-15T05:58:29.481Z,98.20
2019-05-15T06:00:58.592Z,98.40
2019-05-15T06:03:28.103Z,98.10
2019-05-15T06:05:59.095Z,97.50
2019-05-15T06:08:28.292Z,96.70
2019-05-15T06:10:58.466Z,96.90
2019-05-15T06:13:29.172Z,95.80
2019-05-15T06:15:59.134Z,96.40
2019-05-15T06:18:28.261Z,96.30
2019-05-15T06:20:58.660Z,95.60
2019-05-15T06:23:33.758Z,95.70
2019-05-15T06:25:59.222Z,95.20
2019-05-15T06:28:28.939Z,95.90
2019-05-15T06:31:00.789Z,94.40
2019-05-15T06:33:28.214Z,94.50
2019-05-15T06:35:59.071Z,94.60
2019-05-15T06:38:30.749Z,94.20
2019-05-15T06:40:58.277Z,94.80
2019-05-15T06:43:28.071Z,95.10
2019-05-15T06:45:58.419Z,95.30
2019-05-15T06:48:28.851Z,92.80
2019-05-15T06:50:57.977Z,93.50
2019-05-15T06:53:28.862Z,93.20
2019-05-15T06:55:58.522Z,92.90
2019-05-15T06:58:28.906Z,92.40
2019-05-15T07:00:59.207Z,92.50
2019-05-15T07:03:29.380Z,91.40
2019-05-15T07:05:59.796Z,91.80
2019-05-15T07:08:28.849Z,91.80
2019-05-15T07:10:57.971Z,91.40
2019-05-15T07:13:28.850Z,91.50
2019-05-15T07:15:58.545Z,90.90
2019-05-15T07:18:28.344Z,90.20
2019-05-15T07:20:58.101Z,90.20
2019-05-15T07:23:30.062Z,91.00
2019-05-15T07:25:58.748Z,90.30
2019-05-15T07:28:28.845Z,90.50
2019-05-15T07:30:58.400Z,87.10
2019-05-15T07:33:36.841Z,86.80
2019-05-15T07:35:59.082Z,88.10
2019-05-15T07:38:28.266Z,86.30
2019-05-15T07:41:03.078Z,83.60
2019-05-15T07:43:28.102Z,85.80
2019-05-15T07:45:58.817Z,85.10
2019-05-15T07:48:29.116Z,82.70
2019-05-15T07:50:59.007Z,81.40
2019-05-15T07:53:28.870Z,84.20
2019-05-15T07:56:01.163Z,86.20
2019-05-15T07:58:27.878Z,82.00
2019-05-15T08:00:59.018Z,81.30
2019-05-15T08:03:29.210Z,79.90
2019-05-15T08:06:02.118Z,77.40
2019-05-15T08:08:28.971Z,80.40
2019-05-15T08:10:58.012Z,80.10
2019-05-15T08:13:28.780Z,79.50
2019-05-15T08:15:57.999Z,78.80
2019-05-15T08:18:28.570Z,75.30
2019-05-15T08:20:58.635Z,75.10
2019-05-15T08:23:28.447Z,73.50
2019-05-15T08:25:57.922Z,74.10
2019-05-15T08:28:28.573Z,73.50
2019-05-15T08:30:58.291Z,73.90
2019-05-15T08:33:28.062Z,73.50
2019-05-15T08:35:58.787Z,71.00
2019-05-15T08:38:28.798Z,71.40
2019-05-15T08:40:59.288Z,72.00
2019-05-15T08:43:29.108Z,65.10
2019-05-15T08:45:58.781Z,65.00
2019-05-15T08:48:27.799Z,57.60
2019-05-15T08:50:57.904Z,57.70
2019-05-15T08:53:28.606Z,58.00
2019-05-15T08:55:58.761Z,56.70
2019-05-15T08:58:29.059Z,53.90
2019-05-15T09:00:58.650Z,56.00
2019-05-15T09:03:28.622Z,56.20
2019-05-15T09:05:58.972Z,54.90
2019-05-15T09:08:29.264Z,52.40
2019-05-15T09:10:58.816Z,51.00
2019-05-15T09:13:29.270Z,52.80
2019-05-15T09:15:58.898Z,49.90
2019-05-15T09:18:28.376Z,48.40
2019-05-15T09:20:59.420Z,49.90
2019-05-15T09:23:29.010Z,48.20
2019-05-15T09:25:57.866Z,48.60
2019-05-15T09:28:29.321Z,48.60
2019-05-15T09:30:59.032Z,48.20
2019-05-15T09:33:28.610Z,48.00
2019-05-15T09:35:58.312Z,46.80
2019-05-15T09:38:28.868Z,46.00
2019-05-15T09:40:58.524Z,44.20
2019-05-15T09:43:28.574Z,45.20
2019-05-15T09:45:58.296Z,47.20
2019-05-15T09:48:28.714Z,45.70
2019-05-15T09:50:58.700Z,44.50
2019-05-15T09:53:28.516Z,42.30
2019-05-15T09:55:59.757Z,41.00
2019-05-15T09:58:30.010Z,41.00
2019-05-15T10:00:58.323Z,38.60
2019-05-15T10:03:28.245Z,40.10
2019-05-15T10:05:56.779Z,41.60
2019-05-15T10:08:25.482Z,41.20
2019-05-15T10:10:54.356Z,41.20
2019-05-15T10:13:23.036Z,42.20
2019-05-15T10:15:51.483Z,43.10
2019-05-15T10:18:20.280Z,42.50
2019-05-15T10:20:49.915Z,38.90
2019-05-15T10:23:19.530Z,38.60
2019-05-15T10:25:48.821Z,39.70
2019-05-15T10:28:19.063Z,38.80
2019-05-15T10:30:49.381Z,38.50
2019-05-15T10:33:19.599Z,38.80
2019-05-15T10:35:49.198Z,38.90
2019-05-15T10:38:19.309Z,37.50
2019-05-15T10:41:00.080Z,38.90
2019-05-15T10:43:20.547Z,36.90
2019-05-15T10:45:50.094Z,39.40
2019-05-15T10:48:19.284Z,39.50
2019-05-15T10:50:47.970Z,39.20
2019-05-15T10:53:18.850Z,40.30
2019-05-15T10:55:49.512Z,41.70
2019-05-15T10:58:21.773Z,39.20
2019-05-15T11:00:49.255Z,40.50
2019-05-15T11:03:19.940Z,40.50
2019-05-15T11:05:49.341Z,40.90
2019-05-15T11:08:18.908Z,39.10
2019-05-15T11:10:49.511Z,38.30
2019-05-15T11:13:19.492Z,37.70
2019-05-15T11:15:49.081Z,38.10
2019-05-15T11:18:18.225Z,36.90
2019-05-15T11:20:48.756Z,39.60
2019-05-15T11:23:19.509Z,40.10
2019-05-15T11:25:48.761Z,42.10
2019-05-15T11:28:17.611Z,43.40
2019-05-15T11:30:49.074Z,41.40
2019-05-15T11:33:18.902Z,41.90
2019-05-15T11:36:00.135Z,42.40
2019-05-15T11:38:19.217Z,40.90
2019-05-15T11:40:47.272Z,41.10
2019-05-15T11:43:15.973Z,40.90
2019-05-15T11:45:44.687Z,40.90
2019-05-15T11:48:13.164Z,41.10
2019-05-15T11:50:41.923Z,41.60
2019-05-15T11:53:10.644Z,40.10
2019-05-15T11:55:39.154Z,42.20
2019-05-15T11:58:09.310Z,44.50
2019-05-15T12:00:38.558Z,42.90
2019-05-15T12:03:09.025Z,42.90
2019-05-15T12:05:38.714Z,43.50
2019-05-15T12:08:09.008Z,45.40
2019-05-15T12:10:38.992Z,42.50
2019-05-15T12:13:09.729Z,40.50
2019-05-15T12:15:38.885Z,40.60
2019-05-15T12:18:08.822Z,37.80
2019-05-15T12:20:38.934Z,37.70
2019-05-15T12:25:39.572Z,38.50
2019-05-15T12:28:09.614Z,35.80
2019-05-15T12:30:40.287Z,34.00
2019-05-15T12:33:09.890Z,34.60
2019-05-15T12:35:39.874Z,34.70
2019-05-15T12:38:09.949Z,34.70
2019-05-15T13:00:41.383Z,35.90
2019-05-15T13:03:09.867Z,37.70
2019-05-15T13:05:39.271Z,34.50
2019-05-15T13:08:08.505Z,32.70
2019-05-15T13:10:38.405Z,32.10
2019-05-15T13:13:09.393Z,32.50
2019-05-15T13:15:40.936Z,32.50
2019-05-15T13:18:14.094Z,32.70
2019-05-15T13:20:38.566Z,32.40
2019-05-15T13:23:08.709Z,32.90
2019-05-15T13:25:39.557Z,33.60
2019-05-15T13:28:08.892Z,31.30
2019-05-15T13:30:41.173Z,32.20
2019-05-15T13:33:09.827Z,31.90
2019-05-15T13:35:38.848Z,32.60
2019-05-15T13:38:09.964Z,32.50
2019-05-15T13:40:41.913Z,30.70
2019-05-15T13:43:08.683Z,31.70
2019-05-15T13:45:38.645Z,30.80
2019-05-15T13:48:08.785Z,30.80
2019-05-15T13:50:40.523Z,31.20
2019-05-15T13:53:10.561Z,34.20
2019-05-15T13:55:42.233Z,33.20
2019-05-15T13:58:08.933Z,31.80
2019-05-15T14:00:38.919Z,31.50
2019-05-15T14:03:09.062Z,32.10
2019-05-15T14:05:38.430Z,33.00
2019-05-15T14:08:07.347Z,32.60
2019-05-15T14:10:38.286Z,31.80
2019-05-15T14:13:06.394Z,31.60
2019-05-15T14:15:34.984Z,30.20
2019-05-15T14:18:03.471Z,31.00
2019-05-15T14:20:32.161Z,31.60
2019-05-15T14:23:00.599Z,31.20
2019-05-15T14:25:29.332Z,30.70
2019-05-15T14:27:59.359Z,29.70
2019-05-15T14:30:29.373Z,29.40
2019-05-15T14:32:59.758Z,30.00
2019-05-15T14:35:28.649Z,31.90
2019-05-15T14:38:05.986Z,32.10
2019-05-15T14:40:28.131Z,33.80
2019-05-15T14:42:59.437Z,34.10
2019-05-15T14:45:28.061Z,33.10
2019-05-15T14:47:58.158Z,32.90
2019-05-15T14:50:28.422Z,35.00
2019-05-15T14:52:58.558Z,35.70
2019-05-15T14:55:33.399Z,35.50
2019-05-15T14:57:58.885Z,35.00
2019-05-15T15:00:30.178Z,31.50
2019-05-15T15:02:58.829Z,31.80
2019-05-15T15:05:27.875Z,31.70
2019-05-15T15:07:58.522Z,32.50
2019-05-15T15:10:29.170Z,30.00
2019-05-15T15:12:58.515Z,30.30
2019-05-15T15:15:28.675Z,30.40
2019-05-15T15:17:58.343Z,29.60
2019-05-15T15:20:28.543Z,32.40
2019-05-15T15:22:58.780Z,33.90
2019-05-15T15:25:27.744Z,32.70
2019-05-15T15:27:58.481Z,32.50
2019-05-15T15:30:26.612Z,31.10
2019-05-15T15:32:55.075Z,31.70
2019-05-15T15:35:23.787Z,30.60
2019-05-15T15:37:52.607Z,31.80
2019-05-15T15:40:21.401Z,32.80
2019-05-15T15:42:50.096Z,33.60
2019-05-15T15:45:19.453Z,35.20
2019-05-15T15:47:48.317Z,36.40
2019-05-15T15:50:18.297Z,35.60
2019-05-15T15:52:48.830Z,36.00
2019-05-15T15:55:18.513Z,36.00
2019-05-15T15:57:48.748Z,34.70
2019-05-15T16:00:18.384Z,33.70
2019-05-15T16:02:48.419Z,34.10
2019-05-15T16:05:19.032Z,33.00
2019-05-15T16:07:48.502Z,34.30
2019-05-15T16:10:18.958Z,33.00
2019-05-15T16:12:49.280Z,32.00
2019-05-15T16:15:18.191Z,33.40
2019-05-15T16:17:48.854Z,33.50
2019-05-15T16:20:18.936Z,33.80
2019-05-15T16:22:48.559Z,34.40
2019-05-15T16:25:18.449Z,36.40
2019-05-15T16:27:48.843Z,36.30
2019-05-15T16:30:18.753Z,36.00
2019-05-15T16:32:47.543Z,36.70
2019-05-15T16:35:18.436Z,37.00
2019-05-15T16:37:49.023Z,38.50
2019-05-15T16:40:18.416Z,38.90
2019-05-15T16:42:48.831Z,39.60
2019-05-15T16:45:17.606Z,40.90
2019-05-15T16:47:48.095Z,41.10
2019-05-15T16:50:18.132Z,41.70
2019-05-15T16:52:49.084Z,42.40
2019-05-15T16:55:17.319Z,42.40
2019-05-15T16:57:47.985Z,43.60
2019-05-15T17:00:18.661Z,45.00
2019-05-15T17:02:48.285Z,45.80
2019-05-15T17:05:18.547Z,45.00
2019-05-15T17:07:48.874Z,45.30
2019-05-15T17:10:17.612Z,46.20
2019-05-15T17:12:49.054Z,45.30
2019-05-15T17:15:17.214Z,47.10
2019-05-15T17:17:45.689Z,47.30
2019-05-15T17:20:14.474Z,47.00
2019-05-15T17:22:42.982Z,47.40
2019-05-15T17:25:11.595Z,47.60
2019-05-15T17:27:40.098Z,48.60
2019-05-15T17:30:09.830Z,48.00
2019-05-15T17:32:40.594Z,47.30
2019-05-15T17:35:09.770Z,46.90
2019-05-15T17:37:38.994Z,48.20
2019-05-15T17:40:08.841Z,48.40
2019-05-15T17:42:39.003Z,48.80
2019-05-15T17:45:09.288Z,49.30
2019-05-15T17:47:38.748Z,48.70
2019-05-15T17:50:09.706Z,48.70
2019-05-15T17:52:39.075Z,49.10
2019-05-15T17:55:08.191Z,49.90
2019-05-15T17:57:38.820Z,50.10
2019-05-15T18:00:12.427Z,49.40
2019-05-15T18:02:40.138Z,50.00
2019-05-15T18:05:09.299Z,50.70
2019-05-15T18:07:38.961Z,51.40
2019-05-15T18:10:08.704Z,51.50
2019-05-15T18:12:38.904Z,51.90
2019-05-15T18:15:09.111Z,51.50
2019-05-15T18:17:39.790Z,52.20
2019-05-15T18:20:09.777Z,52.20
2019-05-15T18:22:39.065Z,53.20
2019-05-15T18:25:09.023Z,53.20
2019-05-15T18:27:38.763Z,52.80
2019-05-15T18:30:09.467Z,52.40
2019-05-15T18:32:39.239Z,52.90
2019-05-15T18:35:08.389Z,53.40
2019-05-15T18:37:39.294Z,53.50
2019-05-15T18:40:09.915Z,54.20
2019-05-15T18:42:39.314Z,54.90
2019-05-15T18:45:09.815Z,54.50
2019-05-15T18:47:39.084Z,54.90
2019-05-15T18:50:12.728Z,55.50
2019-05-15T18:52:39.026Z,55.80
2019-05-15T18:55:08.508Z,55.60
2019-05-15T18:57:38.531Z,55.90
2019-05-15T19:00:09.022Z,56.20
2019-05-15T19:02:39.364Z,56.70
2019-05-15T19:05:08.737Z,57.40
2019-05-15T19:07:38.278Z,57.70
2019-05-15T19:10:08.681Z,57.40
2019-05-15T19:12:38.016Z,58.10
2019-05-15T19:15:09.583Z,57.60
2019-05-15T19:17:39.015Z,58.60
2019-05-15T19:20:08.579Z,58.80
2019-05-15T19:22:40.490Z,59.60
2019-05-15T19:25:08.914Z,59.60
2019-05-15T19:27:39.257Z,59.70
2019-05-15T19:30:08.413Z,59.80
2019-05-15T19:32:38.816Z,60.90
2019-05-15T19:35:08.641Z,62.20
2019-05-15T19:37:38.413Z,62.10
2019-05-15T19:40:07.685Z,61.90
2019-05-15T19:42:38.415Z,62.50
2019-05-15T19:45:08.756Z,62.80
2019-05-15T19:47:38.809Z,63.80
2019-05-15T19:50:08.628Z,63.30
2019-05-15T19:52:37.209Z,63.90
2019-05-15T19:55:08.596Z,63.90
2019-05-15T19:57:38.659Z,64.70
2019-05-15T20:00:08.546Z,65.90
2019-05-15T20:02:38.048Z,65.70
2019-05-15T20:05:09.248Z,66.20
2019-05-15T20:07:38.985Z,66.60
2019-05-15T20:10:09.246Z,66.80
2019-05-15T20:12:39.066Z,66.40
2019-05-15T20:15:09.250Z,67.70
2019-05-15T20:17:38.837Z,68.00
2019-05-15T20:20:08.912Z,68.70
2019-05-15T20:22:39.620Z,69.00
2019-05-15T20:25:08.684Z,68.70
2019-05-15T20:27:39.073Z,69.20
2019-05-15T20:30:08.610Z,71.50
2019-05-15T20:32:38.676Z,72.40
2019-05-15T20:35:08.828Z,72.50
2019-05-15T20:37:39.042Z,73.20
2019-05-15T20:40:09.532Z,74.50
2019-05-15T20:42:38.575Z,75.20
2019-05-15T20:45:12.210Z,76.50
2019-05-15T20:47:40.667Z,77.50
2019-05-15T20:50:09.700Z,79.20
2019-05-15T20:52:39.582Z,79.80
2019-05-15T20:55:08.925Z,82.30
2019-05-15T20:57:40.556Z,82.20
2019-05-15T21:00:09.132Z,84.20
2019-05-15T21:02:38.086Z,86.10
2019-05-15T21:05:08.700Z,86.80
2019-05-15T21:07:40.096Z,88.90
2019-05-15T21:10:08.485Z,89.20
2019-05-15T21:12:40.454Z,90.40
2019-05-15T21:15:08.885Z,91.30
2019-05-15T21:17:40.367Z,91.80
2019-05-15T21:20:09.572Z,92.30
2019-05-15T21:22:40.194Z,92.90
2019-05-15T21:25:10.887Z,93.50
2019-05-15T21:27:42.655Z,94.70
2019-05-15T21:30:11.001Z,95.30
2019-05-15T21:32:39.543Z,95.60
2019-05-15T21:35:09.068Z,95.80
2019-05-15T21:37:39.275Z,96.30
2019-05-15T21:40:08.854Z,97.30
2019-05-15T21:42:38.893Z,97.90
2019-05-15T21:45:14.302Z,98.00
2019-05-15T21:47:38.932Z,98.80
2019-05-15T21:50:08.268Z,98.80
2019-05-15T21:52:38.983Z,99.00
2019-05-15T21:55:09.305Z,99.90
2019-05-15T21:57:40.210Z,99.40
2019-05-15T22:00:11.505Z,99.90
2019-05-15T22:02:40.243Z,99.90
2019-05-15T22:05:08.968Z,99.90
2019-05-15T22:07:38.824Z,99.90
2019-05-15T22:10:11.089Z,99.90
2019-05-15T22:12:39.344Z,99.90
2019-05-15T22:15:09.037Z,99.90
2019-05-15T22:17:38.680Z,99.90
2019-05-15T22:20:08.929Z,99.90
2019-05-15T22:22:37.432Z,99.90
2019-05-15T22:25:08.584Z,99.90
2019-05-15T22:27:38.280Z,99.90
2019-05-15T22:30:08.263Z,99.90
2019-05-15T22:32:41.226Z,99.90
2019-05-15T22:35:13.313Z,99.90
2019-05-15T22:37:41.405Z,99.90
2019-05-15T22:40:09.220Z,99.90
2019-05-15T22:42:39.127Z,99.90
2019-05-15T22:45:09.028Z,99.90
2019-05-15T22:47:39.089Z,99.90
2019-05-15T22:50:08.491Z,99.90
2019-05-15T22:52:38.831Z,99.90
2019-05-15T22:55:07.633Z,99.90
2019-05-15T22:57:38.640Z,99.90
2019-05-15T23:00:08.680Z,99.90
2019-05-15T23:02:37.410Z,99.90
2019-05-15T23:05:23.448Z,99.90
2019-05-15T23:07:39.185Z,99.90
2019-05-15T23:10:09.117Z,99.90
2019-05-15T23:12:38.199Z,99.90
2019-05-15T23:15:08.629Z,99.90
2019-05-15T23:17:38.271Z,99.90
2019-05-15T23:20:08.899Z,99.90
2019-05-15T23:22:38.629Z,99.90
2019-05-15T23:25:08.020Z,99.90
2019-05-15T23:27:38.181Z,99.90
2019-05-15T23:30:08.948Z,99.90
2019-05-15T23:32:39.143Z,99.90
2019-05-15T23:35:08.448Z,99.90
2019-05-15T23:37:39.140Z,99.90
2019-05-15T23:40:08.848Z,99.90
2019-05-15T23:42:39.152Z,99.90
2019-05-15T23:45:08.873Z,99.90
2019-05-15T23:47:38.367Z,99.90
2019-05-15T23:50:07.827Z,99.90
2019-05-15T23:52:38.288Z,99.90
2019-05-15T23:55:08.726Z,99.90
2019-05-15T23:57:39.227Z,99.90
